Cottage Grove, OR

3:02 PM PDT on June 25, 2017 (GMT -0700)
Talemena - Lamontai | | Change Station
Active Advisory: Heat Advisory

Elev 911 ft 43.78 °N, 123.09 °W | Updated 33 seconds ago

Partly Cloudy
Partly Cloudy
91.4 °F
Feels Like 92 °F
N
2.2
Wind Variable Wind from SSE

Today
High -- | Low -- °F
--% Chance of Precip.
Yesterday
High -- | Low -- °F
Precip. -- in
Pressure 29.87 in
Visibility 10.0 miles
Clouds Few 6000 ft
Few 7000 ft
Scattered Clouds 15000 ft
Mostly Cloudy 26000 ft
Heat Index 92 °F
Dew Point 63 °F
Humidity 39%
Rainfall 0.00 in
Snow Depth Not available.
5:31 AM 8:58 PM
Waxing Crescent, 5% visible
METAR KEUG 252154Z 25016KT 10SM FEW060 FEW070 SCT150 BKN260 29/14 A2987 RMK AO2 SLP114 CB DSNT SE-S TCU DSNT SE T02890144 $
Pressure 29.87 in
Visibility 10.0 miles
Clouds Few 6000 ft
Few 7000 ft
Scattered Clouds 15000 ft
Mostly Cloudy 26000 ft
Heat Index 92 °F
Dew Point 63 °F
Humidity 39%
Rainfall 0.00 in
Snow Depth Not available.
5:31 AM 8:58 PM
Waxing Crescent, 5% visible
METAR KEUG 252154Z 25016KT 10SM FEW060 FEW070 SCT150 BKN260 29/14 A2987 RMK AO2 SLP114 CB DSNT SE-S TCU DSNT SE T02890144 $

Get Your Daily Forecast Email!

Thanks for signing up!

Be on the lookout for a verification email in your inbox.

You'll start receiving severe weather alerts in your inbox..

×

10-Day Weather Forecast

Almanac

Astronomy

Jun. 25, 2017 Rise Set
Actual Time
Civil Twilight
Nautical Twilight
Astronomical Twilight
Moon
Length of Visible Light
Length of Day
Tomorrow will be .
, % of the Moon is Illuminated

Today's Extremes

State Highs State Lows

Community

WunderPhotos

Category 6

Welcome to Category 6. This is the collective home for Weather Underground's featured writeups by Dr. Jeff Masters (right), Bob Henson (left), Chris Burt, and other regular contributors.

Nearby

Air Quality

  Air Quality AQ Index Pollutant
Not available.

Snow Depth

Station Depth Elevation

Earthquake Activity

City Distance Mag. Time & Date
Minimum magnitude displayed is 2.5.

Coastal Water Temperatures

Place Temperature

Stations

Nearby Weather Stations

Station Location Temp. Windchill Dew Point Humidity Wind Precip. Elev Updated Type
                   

Watches & Warnings

Heat Advisory
Issued: 8:42 PM PDT Jun. 24, 2017 – National Weather Service

... Heat advisory remains in effect until 9 PM PDT Sunday...

* impacts... moderate to high risk of heat illness for those who
are sensitive to heat and those without effective cooling and
adequate hydration.

* High temperatures Saturday and sunday: upper 90s to near 100.

* Low temperatures: in the mid to upper 60s tonight.

Precautionary/preparedness actions...

A heat advisory means that a period of hot temperatures is
expected. Drink plenty of fluids, stay in an air-conditioned
room, stay out of the sunshine, and check up on relatives and
neighbors. Know the signs and symptoms of heat exhaustion and
heat stroke. Heat stroke is an emergency, call 9 1 1.